createdAt,value
2017-05-18T00:00:09.341Z,15.74
2017-05-18T00:01:09.352Z,15.69
2017-05-18T00:02:09.324Z,15.62
2017-05-18T00:03:09.020Z,15.71
2017-05-18T00:04:09.321Z,15.68
2017-05-18T00:05:09.318Z,15.57
2017-05-18T00:06:09.312Z,15.53
2017-05-18T00:07:09.310Z,15.57
2017-05-18T00:08:09.304Z,15.53
2017-05-18T00:09:09.303Z,15.53
2017-05-18T00:10:09.296Z,15.53
2017-05-18T00:11:08.988Z,15.54
2017-05-18T00:12:08.988Z,15.49
2017-05-18T00:13:09.285Z,15.41
2017-05-18T00:14:08.978Z,15.41
2017-05-18T00:15:09.276Z,15.38
2017-05-18T00:16:08.671Z,15.49
2017-05-18T00:17:09.268Z,15.47
2017-05-18T00:18:08.961Z,15.43
2017-05-18T00:19:09.263Z,15.39
2017-05-18T00:20:09.257Z,15.43
2017-05-18T00:21:09.252Z,15.32
2017-05-18T00:22:09.248Z,15.28
2017-05-18T00:23:09.310Z,15.36
2017-05-18T00:24:09.241Z,15.27
2017-05-18T00:25:09.237Z,15.23
2017-05-18T00:26:09.236Z,15.21
2017-05-18T00:27:09.227Z,15.21
2017-05-18T00:28:09.220Z,15.23
2017-05-18T00:29:09.223Z,15.2
2017-05-18T00:30:08.916Z,15.23
2017-05-18T00:31:09.210Z,15.19
2017-05-18T00:32:09.211Z,15.14
2017-05-18T00:33:09.203Z,15.11
2017-05-18T00:34:09.196Z,15.14
2017-05-18T00:35:09.191Z,15.11
2017-05-18T00:36:09.190Z,15.13
2017-05-18T00:37:09.184Z,15.13
2017-05-18T00:38:09.221Z,15.13
2017-05-18T00:39:09.180Z,15.11
2017-05-18T00:40:09.171Z,15.1
2017-05-18T00:41:09.169Z,15.1
2017-05-18T00:42:09.167Z,15.14
2017-05-18T00:43:09.167Z,15.09
2017-05-18T00:44:09.156Z,15.01
2017-05-18T00:45:09.147Z,15.06
2017-05-18T00:46:09.143Z,15.03
2017-05-18T00:47:09.140Z,15.06
2017-05-18T00:48:09.135Z,15.07
2017-05-18T00:49:09.137Z,15.02
2017-05-18T00:50:09.129Z,14.99
2017-05-18T00:51:09.120Z,15.01
2017-05-18T00:52:09.121Z,14.96
2017-05-18T00:53:09.113Z,14.94
2017-05-18T00:54:09.117Z,14.88
2017-05-18T00:55:08.804Z,14.92
2017-05-18T00:56:09.104Z,14.98
2017-05-18T00:57:09.096Z,14.96
2017-05-18T00:58:09.096Z,14.96
2017-05-18T00:59:09.089Z,14.94
2017-05-18T01:00:09.087Z,14.83
2017-05-18T01:01:09.078Z,14.94
2017-05-18T01:02:09.076Z,14.92
2017-05-18T01:03:09.070Z,14.84
2017-05-18T01:04:09.065Z,14.88
2017-05-18T01:05:09.064Z,14.88
2017-05-18T01:06:09.059Z,14.86
2017-05-18T01:07:09.052Z,14.84
2017-05-18T01:08:09.050Z,14.88
2017-05-18T01:09:09.047Z,14.89
2017-05-18T01:10:09.040Z,14.78
2017-05-18T01:11:09.034Z,14.84
2017-05-18T01:12:09.028Z,14.84
2017-05-18T01:13:09.024Z,14.83
2017-05-18T01:14:09.025Z,14.89
2017-05-18T01:15:09.019Z,14.84
2017-05-18T01:16:09.015Z,14.75
2017-05-18T01:17:09.010Z,14.84
2017-05-18T01:18:09.005Z,14.77
2017-05-18T01:19:08.996Z,14.81
2017-05-18T01:20:08.994Z,14.75
2017-05-18T01:21:08.998Z,14.62
2017-05-18T01:22:08.984Z,14.68
2017-05-18T01:23:08.980Z,14.69
2017-05-18T01:24:08.976Z,14.62
2017-05-18T01:25:08.968Z,14.54
2017-05-18T01:26:08.965Z,14.62
2017-05-18T01:27:08.968Z,14.54
2017-05-18T01:28:08.981Z,14.57
2017-05-18T01:29:08.952Z,14.58
2017-05-18T01:30:08.945Z,14.46
2017-05-18T01:31:08.942Z,14.5
2017-05-18T01:32:08.943Z,14.52
2017-05-18T01:33:08.934Z,14.47
2017-05-18T01:34:08.930Z,14.43
2017-05-18T01:35:08.623Z,14.47
2017-05-18T01:36:08.919Z,14.46
2017-05-18T01:37:08.913Z,14.46
2017-05-18T01:38:08.910Z,14.39
2017-05-18T01:39:08.905Z,14.4
2017-05-18T01:40:08.902Z,14.37
2017-05-18T01:41:08.897Z,14.4
2017-05-18T01:42:08.896Z,14.37
2017-05-18T01:43:08.891Z,14.42
2017-05-18T01:44:08.890Z,14.35
2017-05-18T01:45:08.880Z,14.36
2017-05-18T01:46:08.875Z,14.28
2017-05-18T01:47:08.865Z,14.28
2017-05-18T01:48:08.864Z,14.28
2017-05-18T01:49:08.859Z,14.32
2017-05-18T01:50:08.549Z,14.29
2017-05-18T01:51:08.850Z,14.22
2017-05-18T01:52:08.538Z,14.32
2017-05-18T01:53:08.840Z,14.25
2017-05-18T01:54:08.842Z,14.18
2017-05-18T01:55:08.831Z,14.22
2017-05-18T01:56:08.828Z,14.2
2017-05-18T01:57:08.821Z,14.18
2017-05-18T01:58:08.510Z,14.2
2017-05-18T01:59:08.808Z,14.17
2017-05-18T02:00:08.805Z,14.22
2017-05-18T02:01:08.851Z,14.14
2017-05-18T02:02:08.798Z,14.15
2017-05-18T02:03:08.485Z,14.15
2017-05-18T02:04:08.785Z,14.14
2017-05-18T02:05:08.780Z,14.12
2017-05-18T02:06:08.774Z,14.06
2017-05-18T02:07:08.768Z,14.06
2017-05-18T02:08:08.764Z,14.15
2017-05-18T02:09:08.761Z,14.09
2017-05-18T02:10:08.753Z,14.12
2017-05-18T02:11:08.753Z,14.04
2017-05-18T02:12:08.746Z,14.04
2017-05-18T02:13:08.740Z,14.06
2017-05-18T02:14:08.734Z,14.04
2017-05-18T02:15:08.727Z,14
2017-05-18T02:16:08.726Z,14.04
2017-05-18T02:17:08.719Z,13.99
2017-05-18T02:18:08.716Z,14
2017-05-18T02:19:08.711Z,13.87
2017-05-18T02:20:08.400Z,13.85
2017-05-18T02:21:08.698Z,13.84
2017-05-18T02:22:08.692Z,13.88
2017-05-18T02:23:08.390Z,13.87
2017-05-18T02:24:08.683Z,13.85
2017-05-18T02:25:08.678Z,13.85
2017-05-18T02:26:08.676Z,13.87
2017-05-18T02:27:08.666Z,13.92
2017-05-18T02:28:08.665Z,13.88
2017-05-18T02:29:08.660Z,13.92
2017-05-18T02:30:08.655Z,13.85
2017-05-18T02:31:08.651Z,13.89
2017-05-18T02:32:08.345Z,13.84
2017-05-18T02:33:08.639Z,13.89
2017-05-18T02:34:08.330Z,13.84
2017-05-18T02:35:08.326Z,13.73
2017-05-18T02:36:08.623Z,13.79
2017-05-18T02:37:08.617Z,13.79
2017-05-18T02:38:08.615Z,13.78
2017-05-18T02:39:08.605Z,13.77
2017-05-18T02:40:08.299Z,13.75
2017-05-18T02:41:08.598Z,13.78
2017-05-18T02:42:08.592Z,13.73
2017-05-18T02:43:07.979Z,13.71
2017-05-18T02:44:07.974Z,13.71
2017-05-18T02:45:08.574Z,13.7
2017-05-18T02:46:08.573Z,13.73
2017-05-18T02:47:08.265Z,13.62
2017-05-18T02:48:08.268Z,13.55
2017-05-18T02:49:08.561Z,13.6
2017-05-18T02:50:08.550Z,13.63
2017-05-18T02:51:08.543Z,13.59
2017-05-18T02:52:08.545Z,13.67
2017-05-18T02:53:08.538Z,13.63
2017-05-18T02:54:08.527Z,13.55
2017-05-18T02:55:08.220Z,13.6
2017-05-18T02:56:08.518Z,13.6
2017-05-18T02:57:08.515Z,13.55
2017-05-18T02:58:08.508Z,13.51
2017-05-18T02:59:08.506Z,13.62
2017-05-18T03:00:08.196Z,13.64
2017-05-18T03:01:08.490Z,13.54
2017-05-18T03:02:08.491Z,13.63
2017-05-18T03:03:08.480Z,13.59
2017-05-18T03:04:08.476Z,13.59
2017-05-18T03:05:08.167Z,13.67
2017-05-18T03:06:08.469Z,13.6
2017-05-18T03:07:08.462Z,13.64
2017-05-18T03:08:08.451Z,13.66
2017-05-18T03:09:08.448Z,13.6
2017-05-18T03:10:08.446Z,13.67
2017-05-18T03:11:08.437Z,13.7
2017-05-18T03:12:08.432Z,13.69
2017-05-18T03:13:08.124Z,13.69
2017-05-18T03:14:08.118Z,13.66
2017-05-18T03:15:08.116Z,13.7
2017-05-18T03:16:08.109Z,13.71
2017-05-18T03:17:08.405Z,13.75
2017-05-18T03:18:08.098Z,13.75
2017-05-18T03:19:08.396Z,13.77
2017-05-18T03:20:08.090Z,13.78
2017-05-18T03:21:08.080Z,13.75
2017-05-18T03:22:08.380Z,13.77
2017-05-18T03:23:08.069Z,13.73
2017-05-18T03:24:08.367Z,13.78
2017-05-18T03:25:08.362Z,13.82
2017-05-18T03:26:08.054Z,13.87
2017-05-18T03:27:08.607Z,13.84
2017-05-18T03:28:08.348Z,13.88
2017-05-18T03:29:08.342Z,13.88
2017-05-18T03:30:08.336Z,13.89
2017-05-18T03:31:08.330Z,13.89
2017-05-18T03:32:08.325Z,13.89
2017-05-18T03:33:08.320Z,13.84
2017-05-18T03:34:08.313Z,13.87
2017-05-18T03:35:08.319Z,13.97
2017-05-18T03:36:08.313Z,13.89
2017-05-18T03:37:08.303Z,13.97
2017-05-18T03:38:07.989Z,14.06
2017-05-18T03:39:08.287Z,14.1
2017-05-18T03:40:08.281Z,14.09
2017-05-18T03:41:08.287Z,14.14
2017-05-18T03:42:08.274Z,14.14
2017-05-18T03:43:08.270Z,14.15
2017-05-18T03:44:08.262Z,14.22
2017-05-18T03:45:08.259Z,14.24
2017-05-18T03:46:07.949Z,14.42
2017-05-18T03:47:08.247Z,14.55
2017-05-18T03:48:08.246Z,14.77
2017-05-18T03:49:08.236Z,14.96
2017-05-18T03:50:07.929Z,15.16
2017-05-18T03:51:08.229Z,15.31
2017-05-18T03:52:07.921Z,15.53
2017-05-18T03:53:08.222Z,15.71
2017-05-18T03:54:08.221Z,15.94
2017-05-18T03:55:07.912Z,16.17
2017-05-18T03:56:08.213Z,16.35
2017-05-18T03:57:08.205Z,16.73
2017-05-18T03:58:08.200Z,16.83
2017-05-18T03:59:08.198Z,17.15
2017-05-18T04:00:08.192Z,17.23
2017-05-18T04:01:08.208Z,17.52
2017-05-18T04:02:08.190Z,17.75
2017-05-18T04:03:08.187Z,18.08
2017-05-18T04:04:07.882Z,18.3
2017-05-18T04:05:08.195Z,18.52
2017-05-18T04:06:07.880Z,18.78
2017-05-18T04:07:08.181Z,19
2017-05-18T04:08:07.874Z,19.33
2017-05-18T04:09:08.180Z,19.56
2017-05-18T04:10:08.174Z,19.78
2017-05-18T04:11:07.881Z,20.11
2017-05-18T04:12:07.866Z,20.23
2017-05-18T04:13:07.867Z,20.55
2017-05-18T04:14:08.171Z,20.8
2017-05-18T04:15:07.865Z,21.14
2017-05-18T04:16:08.167Z,21.27
2017-05-18T04:17:08.179Z,21.59
2017-05-18T04:18:07.866Z,21.8
2017-05-18T04:19:08.171Z,21.99
2017-05-18T04:20:08.173Z,22.18
2017-05-18T04:21:08.171Z,22.33
2017-05-18T04:22:08.179Z,22.57
2017-05-18T04:23:08.176Z,22.82
2017-05-18T04:24:08.196Z,23.01
2017-05-18T04:25:08.179Z,23.19
2017-05-18T04:26:08.188Z,23.51
2017-05-18T04:27:08.188Z,23.68
2017-05-18T04:28:08.188Z,23.79
2017-05-18T04:29:08.193Z,24.13
2017-05-18T04:30:08.191Z,24.24
2017-05-18T04:31:08.199Z,24.52
2017-05-18T04:32:07.897Z,24.68
2017-05-18T04:33:08.205Z,24.88
2017-05-18T04:34:08.210Z,25.08
2017-05-18T04:35:08.223Z,25.32
2017-05-18T04:36:07.927Z,25.51
2017-05-18T04:37:07.921Z,25.73
2017-05-18T04:38:08.229Z,25.95
2017-05-18T04:39:08.237Z,26.21
2017-05-18T04:40:07.935Z,26.39
2017-05-18T04:41:08.245Z,26.67
2017-05-18T04:42:08.253Z,26.88
2017-05-18T04:43:08.259Z,27.03
2017-05-18T04:44:08.266Z,27.28
2017-05-18T04:45:08.274Z,27.57
2017-05-18T04:46:08.280Z,27.74
2017-05-18T04:47:08.283Z,27.84
2017-05-18T04:48:08.289Z,28.02
2017-05-18T04:49:08.300Z,28.11
2017-05-18T04:50:08.304Z,28.27
2017-05-18T04:51:08.313Z,28.33
2017-05-18T04:52:08.319Z,28.39
2017-05-18T04:53:08.024Z,28.37
2017-05-18T04:54:08.031Z,28.39
2017-05-18T04:55:08.037Z,28.61
2017-05-18T04:56:08.348Z,28.62
2017-05-18T04:57:08.358Z,28.67
2017-05-18T04:58:08.362Z,28.92
2017-05-18T04:59:08.378Z,28.92
2017-05-18T05:00:08.386Z,29.11
2017-05-18T05:01:08.392Z,29.11
2017-05-18T05:02:08.397Z,29.24
2017-05-18T05:03:08.105Z,29.34
2017-05-18T05:04:08.416Z,29.37
2017-05-18T05:05:08.429Z,29.46
2017-05-18T05:06:08.435Z,29.49
2017-05-18T05:07:08.442Z,29.6
2017-05-18T05:08:08.148Z,29.65
2017-05-18T05:09:08.459Z,29.78
2017-05-18T05:10:08.171Z,29.92
2017-05-18T05:11:08.495Z,30.05
2017-05-18T05:12:08.494Z,30.04
2017-05-18T05:13:08.494Z,30.23
2017-05-18T05:14:08.506Z,30.51
2017-05-18T05:15:08.515Z,30.47
2017-05-18T05:16:08.530Z,30.77
2017-05-18T05:17:08.545Z,30.89
2017-05-18T05:18:08.543Z,31.04
2017-05-18T05:19:08.554Z,31.19
2017-05-18T05:20:08.563Z,31.35
2017-05-18T05:21:08.574Z,31.41
2017-05-18T05:22:08.584Z,31.53
2017-05-18T05:23:08.594Z,31.54
2017-05-18T05:24:08.309Z,31.68
2017-05-18T05:25:08.616Z,31.66
2017-05-18T05:26:08.625Z,31.8
2017-05-18T05:27:08.637Z,32.04
2017-05-18T05:28:08.345Z,32.21
2017-05-18T05:29:08.659Z,32.29
2017-05-18T05:30:08.368Z,32.47
2017-05-18T05:31:08.678Z,32.63
2017-05-18T05:32:08.394Z,32.62
2017-05-18T05:33:08.705Z,32.65
2017-05-18T05:34:08.411Z,32.77
2017-05-18T05:35:08.725Z,32.84
2017-05-18T05:36:08.753Z,32.96
2017-05-18T05:37:08.451Z,33.07
2017-05-18T05:38:08.759Z,33.19
2017-05-18T05:39:08.773Z,33.31
2017-05-18T05:40:08.783Z,33.44
2017-05-18T05:41:08.796Z,33.44
2017-05-18T05:42:08.813Z,33.51
2017-05-18T05:43:08.822Z,33.66
2017-05-18T05:44:08.838Z,33.61
2017-05-18T05:45:08.845Z,33.63
2017-05-18T05:46:08.857Z,33.73
2017-05-18T05:47:08.567Z,33.69
2017-05-18T05:48:08.879Z,33.73
2017-05-18T05:49:08.894Z,33.78
2017-05-18T05:50:08.901Z,33.87
2017-05-18T05:51:08.920Z,33.97
2017-05-18T05:52:08.933Z,34.1
2017-05-18T05:53:08.948Z,34.19
2017-05-18T05:54:08.955Z,34.17
2017-05-18T05:55:08.670Z,34.24
2017-05-18T05:56:08.675Z,34.16
2017-05-18T05:57:08.996Z,34.19
2017-05-18T05:58:08.709Z,34.27
2017-05-18T05:59:08.718Z,34.17
2017-05-18T06:00:08.732Z,34.17
2017-05-18T06:01:09.046Z,34.25
2017-05-18T06:02:09.067Z,34.31
2017-05-18T06:03:09.069Z,34.5
2017-05-18T06:04:08.779Z,34.65
2017-05-18T06:05:08.797Z,34.84
2017-05-18T06:06:09.113Z,34.87
2017-05-18T06:07:09.126Z,34.89
2017-05-18T06:08:09.139Z,34.88
2017-05-18T06:09:09.151Z,34.88
2017-05-18T06:10:09.165Z,34.92
2017-05-18T06:11:09.183Z,35
2017-05-18T06:12:09.199Z,35.07
2017-05-18T06:13:09.211Z,35.23
2017-05-18T06:14:09.222Z,35.19
2017-05-18T06:15:09.235Z,35.34
2017-05-18T06:16:09.255Z,35.37
2017-05-18T06:17:09.264Z,35.47
2017-05-18T06:18:09.284Z,35.63
2017-05-18T06:19:09.300Z,35.58
2017-05-18T06:20:09.011Z,35.72
2017-05-18T06:21:09.328Z,35.81
2017-05-18T06:22:08.736Z,35.8
2017-05-18T06:23:09.356Z,35.93
2017-05-18T06:24:09.079Z,36.03
2017-05-18T06:25:09.084Z,36.12
2017-05-18T06:26:09.410Z,36.16
2017-05-18T06:27:09.419Z,36.28
2017-05-18T06:28:09.435Z,36.34
2017-05-18T06:29:09.455Z,36.34
2017-05-18T06:30:09.164Z,36.39
2017-05-18T06:31:09.487Z,36.53
2017-05-18T06:32:09.197Z,36.65
2017-05-18T06:33:09.213Z,36.8
2017-05-18T06:34:09.538Z,36.91
2017-05-18T06:35:09.553Z,37.02
2017-05-18T06:36:09.566Z,37.17
2017-05-18T06:37:09.583Z,37.2
2017-05-18T06:38:09.599Z,37.28
2017-05-18T06:39:09.619Z,37.2
2017-05-18T06:40:09.334Z,37.12
2017-05-18T06:41:09.652Z,37.32
2017-05-18T06:42:09.667Z,37.31
2017-05-18T06:43:09.689Z,37.37
2017-05-18T06:44:09.399Z,37.34
2017-05-18T06:45:09.117Z,37.43
2017-05-18T06:46:09.434Z,37.57
2017-05-18T06:47:09.759Z,37.59
2017-05-18T06:48:09.777Z,37.57
2017-05-18T06:49:09.795Z,37.72
2017-05-18T06:50:09.808Z,37.86
2017-05-18T06:51:09.836Z,37.91
2017-05-18T06:52:09.542Z,37.91
2017-05-18T06:53:09.863Z,37.76
2017-05-18T06:54:09.577Z,37.72
2017-05-18T06:55:09.901Z,37.75
2017-05-18T06:56:09.615Z,37.74
2017-05-18T06:57:09.933Z,37.86
2017-05-18T06:58:09.954Z,37.97
2017-05-18T06:59:09.973Z,38.04
2017-05-18T07:00:09.995Z,38.12
2017-05-18T07:01:09.714Z,38.16
2017-05-18T07:02:09.729Z,38.04
2017-05-18T07:03:10.044Z,38.09
2017-05-18T07:04:10.064Z,38.13
2017-05-18T07:05:10.080Z,38.22
2017-05-18T07:06:09.812Z,38.3
2017-05-18T07:07:10.116Z,38.38
2017-05-18T07:08:10.140Z,38.47
2017-05-18T07:09:10.155Z,38.69
2017-05-18T07:10:09.872Z,38.72
2017-05-18T07:11:10.190Z,38.79
2017-05-18T07:12:10.209Z,38.74
2017-05-18T07:13:10.228Z,38.65
2017-05-18T07:14:10.248Z,38.68
2017-05-18T07:15:09.969Z,38.72
2017-05-18T07:16:10.284Z,38.87
2017-05-18T07:17:10.303Z,38.86
2017-05-18T07:18:10.322Z,38.84
2017-05-18T07:19:10.040Z,38.96
2017-05-18T07:20:10.363Z,39.14
2017-05-18T07:21:10.073Z,39.4
2017-05-18T07:22:10.095Z,39.32
2017-05-18T07:23:10.415Z,39.59
2017-05-18T07:24:09.838Z,39.51
2017-05-18T07:25:10.198Z,39.45
2017-05-18T07:26:10.473Z,39.16
2017-05-18T07:27:10.194Z,38.95
2017-05-18T07:28:10.204Z,38.78
2017-05-18T07:29:10.533Z,38.72
2017-05-18T07:30:10.545Z,38.42
2017-05-18T07:31:10.570Z,38.15
2017-05-18T07:32:10.282Z,38.09
2017-05-18T07:33:10.605Z,38.15
2017-05-18T07:34:10.324Z,38.19
2017-05-18T07:35:10.337Z,38.35
2017-05-18T07:36:10.356Z,38.38
2017-05-18T07:37:10.680Z,38.41
2017-05-18T07:38:10.391Z,38.28
2017-05-18T07:39:10.712Z,38.4
2017-05-18T07:40:10.427Z,38.46
2017-05-18T07:41:10.753Z,38.38
2017-05-18T07:42:10.769Z,38.47
2017-05-18T07:43:10.789Z,38.6
2017-05-18T07:44:10.203Z,38.54
2017-05-18T07:45:10.825Z,38.66
2017-05-18T07:46:10.844Z,38.66
2017-05-18T07:47:10.859Z,38.47
2017-05-18T07:48:10.882Z,38.35
2017-05-18T07:49:10.898Z,38.28
2017-05-18T07:50:10.612Z,38.34
2017-05-18T07:51:10.632Z,38.22
2017-05-18T07:52:10.953Z,38.19
2017-05-18T07:53:10.972Z,38.06
2017-05-18T07:54:10.990Z,38.19
2017-05-18T07:55:11.011Z,38.2
2017-05-18T07:56:11.028Z,38.11
2017-05-18T07:57:11.047Z,38.01
2017-05-18T07:58:11.069Z,37.85
2017-05-18T07:59:11.087Z,37.96
2017-05-18T08:00:11.111Z,38.03
2017-05-18T08:01:11.125Z,37.81
2017-05-18T08:02:10.847Z,37.74
2017-05-18T08:03:10.886Z,37.59
2017-05-18T08:04:11.181Z,37.46
2017-05-18T08:05:11.202Z,37.34
2017-05-18T08:06:11.229Z,37.32
2017-05-18T08:07:11.239Z,37.29
2017-05-18T08:08:11.259Z,37.43
2017-05-18T08:09:10.982Z,37.57
2017-05-18T08:10:11.303Z,37.79
2017-05-18T08:11:11.319Z,37.79
2017-05-18T08:12:11.336Z,37.86
2017-05-18T08:13:11.057Z,37.69
2017-05-18T08:14:11.378Z,37.43
2017-05-18T08:15:11.399Z,37.37
2017-05-18T08:16:11.419Z,37.34
2017-05-18T08:17:11.434Z,37.28
2017-05-18T08:18:11.458Z,37.25
2017-05-18T08:19:11.473Z,37.13
2017-05-18T08:20:11.502Z,37.1
2017-05-18T08:21:11.513Z,36.88
2017-05-18T08:22:11.531Z,36.6
2017-05-18T08:23:11.552Z,36.44
2017-05-18T08:24:11.571Z,36.37
2017-05-18T08:25:11.587Z,36.15
2017-05-18T08:26:11.607Z,35.99
2017-05-18T08:27:11.624Z,35.78
2017-05-18T08:28:11.644Z,35.44
2017-05-18T08:29:11.660Z,35.31
2017-05-18T08:30:11.676Z,35.19
2017-05-18T08:31:11.394Z,35.09
2017-05-18T08:32:11.712Z,34.96
2017-05-18T08:33:11.733Z,34.88
2017-05-18T08:34:11.750Z,34.81
2017-05-18T08:35:11.770Z,34.84
2017-05-18T08:36:11.786Z,34.82
2017-05-18T08:37:11.810Z,34.64
2017-05-18T08:38:11.515Z,34.62
2017-05-18T08:39:11.898Z,34.52
2017-05-18T08:40:11.855Z,34.35
2017-05-18T08:41:11.868Z,34.21
2017-05-18T08:42:11.884Z,33.9
2017-05-18T08:43:11.903Z,33.66
2017-05-18T08:44:11.922Z,33.28
2017-05-18T08:45:11.934Z,32.88
2017-05-18T08:46:11.951Z,32.52
2017-05-18T08:47:11.965Z,32.26
2017-05-18T08:48:11.680Z,32.03
2017-05-18T08:49:11.998Z,31.72
2017-05-18T08:50:12.010Z,31.38
2017-05-18T08:51:12.025Z,31.2
2017-05-18T08:52:11.794Z,30.97
2017-05-18T08:53:12.054Z,30.75
2017-05-18T08:54:11.758Z,30.57
2017-05-18T08:55:12.079Z,30.32
2017-05-18T08:56:12.089Z,30.19
2017-05-18T08:57:12.100Z,29.87
2017-05-18T08:58:12.113Z,29.68
2017-05-18T08:59:12.119Z,29.53
2017-05-18T09:00:11.827Z,29.3
2017-05-18T09:01:12.147Z,29.05
2017-05-18T09:02:11.848Z,28.88
2017-05-18T09:03:12.167Z,28.66
2017-05-18T09:04:11.870Z,28.52
2017-05-18T09:05:12.188Z,28.43
2017-05-18T09:06:11.886Z,28.33
2017-05-18T09:07:11.891Z,28.18
2017-05-18T09:08:12.209Z,27.99
2017-05-18T09:09:12.215Z,27.94
2017-05-18T09:10:12.222Z,27.84
2017-05-18T09:11:12.230Z,27.66
2017-05-18T09:12:12.234Z,27.57
2017-05-18T09:13:12.242Z,27.47
2017-05-18T09:14:12.248Z,27.29
2017-05-18T09:15:12.239Z,27.19
2017-05-18T09:16:12.241Z,27.14
2017-05-18T09:17:12.251Z,27.02
2017-05-18T09:18:12.261Z,27.02
2017-05-18T09:19:11.963Z,26.95
2017-05-18T09:20:11.969Z,26.91
2017-05-18T09:21:44.096Z,26.82
2017-05-18T09:22:12.315Z,26.82
2017-05-18T09:23:12.319Z,26.82
2017-05-18T09:24:11.726Z,26.73
2017-05-18T09:25:12.025Z,26.66
2017-05-18T09:26:12.360Z,26.66
2017-05-18T09:27:12.327Z,26.6
2017-05-18T09:28:12.055Z,26.72
2017-05-18T09:29:12.451Z,26.62
2017-05-18T09:30:12.372Z,26.65
2017-05-18T09:31:11.749Z,26.55
2017-05-18T09:32:12.072Z,26.66
2017-05-18T09:33:12.369Z,26.58
2017-05-18T09:34:12.081Z,26.58
2017-05-18T09:35:12.402Z,26.55
2017-05-18T09:36:12.393Z,26.54
2017-05-18T09:37:12.382Z,26.54
2017-05-18T09:38:12.413Z,26.55
2017-05-18T09:39:12.411Z,26.47
2017-05-18T09:40:12.418Z,26.45
2017-05-18T09:41:12.419Z,26.4
2017-05-18T09:42:12.425Z,26.45
2017-05-18T09:43:12.116Z,26.43
2017-05-18T09:44:12.437Z,26.45
2017-05-18T09:45:12.427Z,26.43
2017-05-18T09:46:12.141Z,26.39
2017-05-18T09:47:12.132Z,26.37
2017-05-18T09:48:12.460Z,26.35
2017-05-18T09:49:12.457Z,26.37
2017-05-18T09:50:12.152Z,26.4
2017-05-18T09:51:12.447Z,26.43
2017-05-18T09:52:12.469Z,26.37
2017-05-18T09:53:12.484Z,26.44
2017-05-18T09:54:12.469Z,26.37
2017-05-18T09:55:12.486Z,26.4
2017-05-18T09:56:12.172Z,26.5
2017-05-18T09:57:12.489Z,26.5
2017-05-18T09:58:12.191Z,26.52
2017-05-18T09:59:12.485Z,26.48
2017-05-18T10:00:12.200Z,26.54
2017-05-18T10:01:12.487Z,26.47
2017-05-18T10:02:12.509Z,26.57
2017-05-18T10:03:12.515Z,26.5
2017-05-18T10:04:12.529Z,26.52
2017-05-18T10:05:12.221Z,26.58
2017-05-18T10:06:12.529Z,26.51
2017-05-18T10:07:12.215Z,26.6
2017-05-18T10:08:12.527Z,26.58
2017-05-18T10:09:12.544Z,26.58
2017-05-18T10:10:12.755Z,26.65
2017-05-18T10:11:12.245Z,26.76
2017-05-18T10:12:12.563Z,26.72
2017-05-18T10:13:12.607Z,26.73
2017-05-18T10:14:12.265Z,26.77
2017-05-18T10:15:12.606Z,26.8
2017-05-18T10:16:12.582Z,26.8
2017-05-18T10:17:12.263Z,26.81
2017-05-18T10:18:12.586Z,26.82
2017-05-18T10:19:12.583Z,26.82
2017-05-18T10:20:12.589Z,26.77
2017-05-18T10:21:12.291Z,26.77
2017-05-18T10:22:12.604Z,26.84
2017-05-18T10:23:12.297Z,26.87
2017-05-18T10:24:12.624Z,26.84
2017-05-18T10:25:12.308Z,26.97
2017-05-18T10:26:12.629Z,26.99
2017-05-18T10:27:12.954Z,26.94
2017-05-18T10:28:12.319Z,26.94
2017-05-18T10:29:12.623Z,26.94
2017-05-18T10:30:12.339Z,27.02
2017-05-18T10:31:12.326Z,26.95
2017-05-18T10:32:12.660Z,27.03
2017-05-18T10:33:12.333Z,27.02
2017-05-18T10:34:12.660Z,27.02
2017-05-18T10:35:12.643Z,27
2017-05-18T10:36:12.575Z,27.03
2017-05-18T10:37:12.672Z,27
2017-05-18T10:38:12.359Z,27
2017-05-18T10:39:12.671Z,27.14
2017-05-18T10:40:12.372Z,27.03
2017-05-18T10:41:12.692Z,27.12
2017-05-18T10:42:12.398Z,27.18
2017-05-18T10:43:12.710Z,27.12
2017-05-18T10:44:12.388Z,27.17
2017-05-18T10:45:12.401Z,27.17
2017-05-18T10:46:12.709Z,27.31
2017-05-18T10:47:12.410Z,27.29
2017-05-18T10:48:12.705Z,27.36
2017-05-18T10:49:12.429Z,27.41
2017-05-18T10:50:12.727Z,27.37
2017-05-18T10:51:12.716Z,27.43
2017-05-18T10:52:12.750Z,27.43
2017-05-18T10:53:12.764Z,27.44
2017-05-18T10:54:12.756Z,27.49
2017-05-18T10:55:12.449Z,27.46
2017-05-18T10:56:12.455Z,27.47
2017-05-18T10:57:12.770Z,27.51
2017-05-18T10:58:12.160Z,27.49
2017-05-18T10:59:12.789Z,27.51
2017-05-18T11:00:12.769Z,27.55
2017-05-18T11:01:12.486Z,27.54
2017-05-18T11:02:12.483Z,27.54
2017-05-18T11:03:12.501Z,27.6
2017-05-18T11:04:12.496Z,27.57
2017-05-18T11:05:12.503Z,27.6
2017-05-18T11:06:12.193Z,27.63
2017-05-18T11:07:12.824Z,27.62
2017-05-18T11:08:12.820Z,27.75
2017-05-18T11:09:12.516Z,27.74
2017-05-18T11:10:12.829Z,27.69
2017-05-18T11:11:12.535Z,27.79
2017-05-18T11:12:12.544Z,27.72
2017-05-18T11:13:12.838Z,27.74
2017-05-18T11:14:12.537Z,27.84
2017-05-18T11:15:12.561Z,27.82
2017-05-18T11:16:12.554Z,27.81
2017-05-18T11:17:12.571Z,27.7
2017-05-18T11:18:12.864Z,27.79
2017-05-18T11:19:12.882Z,27.87
2017-05-18T11:20:12.864Z,27.82
2017-05-18T11:21:12.585Z,27.74
2017-05-18T11:22:12.579Z,27.85
2017-05-18T11:23:12.603Z,27.82
2017-05-18T11:24:12.904Z,27.84
2017-05-18T11:25:12.899Z,27.87
2017-05-18T11:26:12.600Z,27.9
2017-05-18T11:27:12.924Z,27.87
2017-05-18T11:28:12.935Z,27.87
2017-05-18T11:29:12.927Z,27.79
2017-05-18T11:30:12.938Z,27.81
2017-05-18T11:31:12.937Z,27.87
2017-05-18T11:32:12.945Z,27.9
2017-05-18T11:33:12.646Z,27.99
2017-05-18T11:34:12.963Z,28.03
2017-05-18T11:35:12.964Z,28.02
2017-05-18T11:36:12.661Z,28
2017-05-18T11:37:12.964Z,28.04
2017-05-18T11:38:13.022Z,28.14
2017-05-18T11:39:12.964Z,28.11
2017-05-18T11:40:12.690Z,28.15
2017-05-18T11:41:13.034Z,28.14
2017-05-18T11:42:13.007Z,28.17
2017-05-18T11:43:13.001Z,28.09
2017-05-18T11:44:13.019Z,28.17
2017-05-18T11:45:12.701Z,28.09
2017-05-18T11:46:12.698Z,28.11
2017-05-18T11:47:13.013Z,28.17
2017-05-18T11:48:13.031Z,28.15
2017-05-18T11:49:12.722Z,28.19
2017-05-18T11:50:12.432Z,28.19
2017-05-18T11:51:12.728Z,28.18
2017-05-18T11:52:13.055Z,28.27
2017-05-18T11:53:13.049Z,28.25
2017-05-18T11:54:13.055Z,28.31
2017-05-18T11:55:13.069Z,28.24
2017-05-18T11:56:13.053Z,28.27
2017-05-18T11:57:13.069Z,28.17
2017-05-18T11:58:12.780Z,28.19
2017-05-18T11:59:13.095Z,28.25
2017-05-18T12:00:13.101Z,28.25
2017-05-18T12:01:13.103Z,28.22
2017-05-18T12:02:12.807Z,28.3
2017-05-18T12:03:13.113Z,28.3
2017-05-18T12:04:13.122Z,28.33
2017-05-18T12:05:12.812Z,28.31
2017-05-18T12:06:12.812Z,28.3
2017-05-18T12:07:12.833Z,28.17
2017-05-18T12:08:13.126Z,28.27
2017-05-18T12:09:13.155Z,28.34
2017-05-18T12:10:13.147Z,28.31
2017-05-18T12:11:13.167Z,28.29
2017-05-18T12:12:12.855Z,28.22
2017-05-18T12:13:13.147Z,28.31
2017-05-18T12:14:13.173Z,28.24
2017-05-18T12:15:12.933Z,28.3
2017-05-18T12:16:12.882Z,28.39
2017-05-18T12:17:13.179Z,28.37
2017-05-18T12:18:13.183Z,28.39
2017-05-18T12:19:13.190Z,28.44
2017-05-18T12:20:13.207Z,28.39
2017-05-18T12:21:13.190Z,28.48
2017-05-18T12:22:12.913Z,28.49
2017-05-18T12:23:12.916Z,28.44
2017-05-18T12:24:13.232Z,28.48
2017-05-18T12:25:12.929Z,28.48
2017-05-18T12:26:13.242Z,28.46
2017-05-18T12:27:12.925Z,28.56
2017-05-18T12:28:13.264Z,28.61
2017-05-18T12:29:13.254Z,28.52
2017-05-18T12:30:12.954Z,28.51
2017-05-18T12:31:13.253Z,28.55
2017-05-18T12:32:12.973Z,28.49
2017-05-18T12:33:13.269Z,28.49
2017-05-18T12:34:13.281Z,28.52
2017-05-18T12:35:13.267Z,28.46
2017-05-18T12:36:13.301Z,28.4
2017-05-18T12:37:12.985Z,28.48
2017-05-18T12:38:13.313Z,28.41
2017-05-18T12:39:12.986Z,28.37
2017-05-18T12:40:13.005Z,28.43
2017-05-18T12:41:13.321Z,28.49
2017-05-18T12:42:13.011Z,28.44
2017-05-18T12:43:13.330Z,28.44
2017-05-18T12:44:13.347Z,28.4
2017-05-18T12:45:13.346Z,28.54
2017-05-18T12:46:13.345Z,28.36
2017-05-18T12:47:13.335Z,28.51
2017-05-18T12:48:13.348Z,28.43
2017-05-18T12:49:13.375Z,28.44
2017-05-18T12:50:13.371Z,28.46
2017-05-18T12:51:13.373Z,28.4
2017-05-18T12:52:13.361Z,28.43
2017-05-18T12:53:13.395Z,28.4
2017-05-18T12:54:13.382Z,28.4
2017-05-18T12:55:13.400Z,28.46